You are not logged in, Click here to log in
ICAO: RJFK Country: 日本鹿兒島縣霧島市
Latitude: 31.8029 Longitude: 130.718
Total Arrivals: 31 Total Departures: 29
Latest Arrival: BR9118 (RCTP-RJFK)Jason. Li Latest Departure: EHJ780 (RJFK-RCSS)Jason. Li
Scenery:
METAR : RJFK 200600Z VRB03KT 9999 FEW002 SCT007 BKN040 23/22 Q1011 RMK 1ST002 3ST007 7CU040 A2988

鹿児島空港KOJ